LHPR/QGY METAR and TAF weather

Enter ICAO airport designator
Station Type Date Time Source
LHPR METAR 2019/04/22 20:15 UTC NOAA

LHPR 222015Z AUTO 10015KT CAVOK 14/05 Q1013


Station Type Date Time Source
LHPR Decoded METAR 2019/04/22 20:15 UTC NOAA

Station name not available
Apr 22, 2019 - 04:15 PM EDT / 2019.04.22 2015 UTC
Wind: from the E (100 degrees) at 17 MPH (15 KT):0
Visibility: greater than 7 mile(s):0
Temperature: 57 F (14 C)
Dew Point: 41 F (5 C)
Relative Humidity: 54%
Pressure (altimeter): 29.91 in. Hg (1013 hPa)
ob: LHPR 222015Z AUTO 10015KT CAVOK 14/05 Q1013
cycle: 20

Station Type Date Time Source
LHPR TAF UTC NOAA

Error!

Example: see airport list